createdAt,value
2022-12-01T00:03:49.710Z,96050.28
2022-12-01T00:09:14.034Z,96044.38
2022-12-01T00:14:20.716Z,96029.75
2022-12-01T00:19:23.777Z,96033.19
2022-12-01T00:24:28.840Z,96032.19
2022-12-01T00:29:32.004Z,96034.00
2022-12-01T00:34:35.932Z,96026.88
2022-12-01T00:39:39.103Z,96031.75
2022-12-01T00:44:42.180Z,96024.84
2022-12-01T00:49:46.732Z,96022.63
2022-12-01T00:54:50.185Z,96023.66
2022-12-01T00:59:53.405Z,96026.88
2022-12-01T01:04:56.466Z,96035.63
2022-12-01T01:09:59.657Z,96040.50
2022-12-01T01:15:02.732Z,96044.97
2022-12-01T01:20:06.932Z,96040.53
2022-12-01T01:25:10.042Z,96042.34
2022-12-01T01:30:13.175Z,96039.31
2022-12-01T01:35:16.354Z,96031.56
2022-12-01T01:40:19.438Z,96039.09
2022-12-01T01:45:22.786Z,96038.28
2022-12-01T01:50:26.024Z,96035.03
2022-12-01T01:55:29.125Z,96034.41
2022-12-01T02:00:32.383Z,96041.94
2022-12-01T02:05:36.559Z,96033.78
2022-12-01T02:10:39.667Z,96012.63
2022-12-01T02:15:42.813Z,96015.47
2022-12-01T02:20:46.111Z,96017.91
2022-12-01T02:25:49.244Z,96017.13
2022-12-01T02:30:52.573Z,96017.72
2022-12-01T02:35:55.780Z,96020.78
2022-12-01T02:40:58.971Z,96015.69
2022-12-01T02:46:02.195Z,96019.53
2022-12-01T02:51:05.367Z,96012.41
2022-12-01T02:56:08.555Z,96005.91
2022-12-01T03:01:11.771Z,96010.59
2022-12-01T03:06:15.192Z,96006.13
2022-12-01T03:11:27.130Z,96002.66
2022-12-01T03:16:30.321Z,96002.03
2022-12-01T03:21:33.608Z,96003.28
2022-12-01T03:26:36.728Z,96000.84
2022-12-01T03:31:40.691Z,96003.63
2022-12-01T03:36:43.872Z,95998.78
2022-12-01T03:41:46.967Z,96004.88
2022-12-01T03:46:50.152Z,96012.59
2022-12-01T03:51:55.313Z,96016.03
2022-12-01T03:56:58.373Z,96007.47
2022-12-01T04:02:01.535Z,96004.06
2022-12-01T04:07:04.976Z,96011.97
2022-12-01T04:12:25.564Z,96013.63
2022-12-01T04:17:29.176Z,96002.41
2022-12-01T04:22:32.489Z,96006.88
2022-12-01T04:27:35.593Z,96009.50
2022-12-01T04:32:38.693Z,96013.84
2022-12-01T04:37:41.827Z,96007.28
2022-12-01T04:42:45.579Z,95993.41
2022-12-01T04:47:48.661Z,96001.78
2022-12-01T04:52:52.416Z,96002.78
2022-12-01T04:57:55.588Z,95998.34
2022-12-01T05:02:58.759Z,96013.84
2022-12-01T05:08:01.909Z,96014.63
2022-12-01T05:13:05.052Z,96012.16
2022-12-01T05:18:08.197Z,96006.84
2022-12-01T05:23:16.497Z,96007.03
2022-12-01T05:28:20.209Z,96016.44
2022-12-01T05:33:23.584Z,96012.56
2022-12-01T05:38:26.859Z,96014.75
2022-12-01T05:43:29.973Z,96006.22
2022-12-01T05:48:33.950Z,96009.88
2022-12-01T05:53:37.306Z,96007.41
2022-12-01T05:58:40.559Z,96008.81
2022-12-01T06:03:43.720Z,96010.88
2022-12-01T06:08:46.840Z,96013.75
2022-12-01T06:13:49.911Z,96014.38
2022-12-01T06:18:53.045Z,96016.00
2022-12-01T06:23:56.202Z,96014.94
2022-12-01T06:28:59.316Z,96019.81
2022-12-01T06:34:02.430Z,96019.84
2022-12-01T06:39:05.519Z,96030.03
2022-12-01T06:44:08.625Z,96030.41
2022-12-01T06:49:12.095Z,96032.84
2022-12-01T06:54:15.341Z,96038.53
2022-12-01T06:59:19.777Z,96038.50
2022-12-01T07:04:22.896Z,96036.06
2022-12-01T07:09:25.991Z,96040.13
2022-12-01T07:14:29.156Z,96039.31
2022-12-01T07:19:32.398Z,96040.72
2022-12-01T07:24:36.192Z,96046.31
2022-12-01T07:29:39.329Z,96053.63
2022-12-01T07:34:42.401Z,96055.22
2022-12-01T07:39:45.563Z,96062.13
2022-12-01T07:44:48.771Z,96064.97
2022-12-01T07:49:52.038Z,96057.69
2022-12-01T07:54:55.570Z,96061.72
2022-12-01T07:59:59.204Z,96069.28
2022-12-01T08:05:02.298Z,96060.91
2022-12-01T08:10:05.482Z,96072.94
2022-12-01T08:15:09.137Z,96071.69
2022-12-01T08:20:12.434Z,96071.47
2022-12-01T08:25:15.653Z,96061.16
2022-12-01T08:30:18.795Z,96066.09
2022-12-01T08:35:21.945Z,96063.97
2022-12-01T08:40:35.002Z,96061.16
2022-12-01T08:45:39.404Z,96065.75
2022-12-01T08:50:42.588Z,96054.09
2022-12-01T08:55:45.820Z,96062.53
2022-12-01T09:00:48.942Z,96059.63
2022-12-01T09:05:52.150Z,96059.56
2022-12-01T09:10:55.248Z,96065.09
2022-12-01T09:15:58.552Z,96065.06
2022-12-01T09:21:01.779Z,96064.66
2022-12-01T09:26:04.887Z,96066.06
2022-12-01T09:31:08.180Z,96062.22
2022-12-01T09:36:11.348Z,96068.88
2022-12-01T09:41:16.753Z,96066.63
2022-12-01T09:46:19.875Z,96057.19
2022-12-01T09:51:22.981Z,96055.69
2022-12-01T09:56:26.700Z,96052.69
2022-12-01T10:01:29.816Z,96055.63
2022-12-01T10:06:33.099Z,96039.34
2022-12-01T10:11:36.523Z,96041.38
2022-12-01T10:16:40.363Z,96039.88
2022-12-01T10:21:43.440Z,96024.81
2022-12-01T10:26:46.810Z,96021.13
2022-12-01T10:31:50.041Z,96023.78
2022-12-01T10:36:53.541Z,96027.66
2022-12-01T10:41:56.576Z,96020.78
2022-12-01T10:46:59.732Z,96017.00
2022-12-01T10:52:06.038Z,96007.44
2022-12-01T10:57:11.670Z,96007.69
2022-12-01T11:02:15.023Z,96004.03
2022-12-01T11:07:18.229Z,96000.84
2022-12-01T11:12:21.315Z,95999.69
2022-12-01T11:17:25.620Z,95997.38
2022-12-01T11:22:28.753Z,95991.50
2022-12-01T11:27:31.856Z,95991.94
2022-12-01T11:32:34.926Z,95981.75
2022-12-01T11:37:38.093Z,95976.69
2022-12-01T11:42:41.373Z,95979.06
2022-12-01T11:47:44.474Z,95974.50
2022-12-01T11:52:47.580Z,95983.63
2022-12-01T11:57:50.649Z,95974.72
2022-12-01T12:02:53.763Z,95977.63
2022-12-01T12:07:56.862Z,95980.41
2022-12-01T12:13:00.572Z,95977.44
2022-12-01T12:18:03.776Z,95977.06
2022-12-01T12:23:07.039Z,95973.56
2022-12-01T12:28:11.279Z,95976.16
2022-12-01T12:33:14.447Z,95967.28
2022-12-01T12:38:17.523Z,95956.41
2022-12-01T12:43:20.729Z,95959.34
2022-12-01T12:48:24.398Z,95956.41
2022-12-01T12:53:27.501Z,95951.19
2022-12-01T12:58:30.698Z,95961.34
2022-12-01T13:03:34.328Z,95955.44
2022-12-01T13:08:37.496Z,95958.63
2022-12-01T13:13:41.695Z,95960.34
2022-12-01T13:18:45.534Z,95966.41
2022-12-01T13:23:48.744Z,95965.38
2022-12-01T13:28:51.996Z,95969.63
2022-12-01T13:33:55.265Z,95963.75
2022-12-01T13:38:58.320Z,95953.03
2022-12-01T13:44:01.539Z,95959.25
2022-12-01T13:49:04.669Z,95958.88
2022-12-01T13:54:07.942Z,95957.25
2022-12-01T13:59:11.161Z,95959.16
2022-12-01T14:04:14.338Z,95945.50
2022-12-01T14:09:17.688Z,95958.06
2022-12-01T14:14:25.711Z,95958.44
2022-12-01T14:19:29.459Z,95952.81
2022-12-01T14:24:32.547Z,95959.22
2022-12-01T14:29:38.304Z,95963.66
2022-12-01T14:34:41.410Z,95964.22
2022-12-01T14:39:44.515Z,95975.59
2022-12-01T14:44:47.878Z,95965.91
2022-12-01T14:49:51.388Z,95968.25
2022-12-01T14:54:54.527Z,95971.00
2022-12-01T14:59:57.635Z,95963.38
2022-12-01T15:05:00.750Z,95966.56
2022-12-01T15:10:04.771Z,95966.25
2022-12-01T15:15:10.912Z,95966.53
2022-12-01T15:20:14.082Z,95969.81
2022-12-01T15:25:17.164Z,95968.25
2022-12-01T15:30:20.644Z,95969.53
2022-12-01T15:35:23.889Z,95967.56
2022-12-01T15:45:50.602Z,95968.97
2022-12-01T15:50:54.453Z,95968.81
2022-12-01T15:55:59.197Z,95965.94
2022-12-01T16:01:02.648Z,95970.50
2022-12-01T16:06:05.795Z,95964.88
2022-12-01T16:11:09.301Z,95969.06
2022-12-01T16:16:12.459Z,95957.47
2022-12-01T16:21:16.196Z,95957.88
2022-12-01T16:26:19.271Z,95969.53
2022-12-01T16:31:22.518Z,95964.47
2022-12-01T16:36:27.066Z,95969.00
2022-12-01T16:41:36.427Z,95960.28
2022-12-01T16:46:41.220Z,95971.56
2022-12-01T16:51:58.052Z,95967.34
2022-12-01T16:57:02.385Z,95968.44
2022-12-01T17:02:05.623Z,95962.72
2022-12-01T17:07:08.797Z,95966.06
2022-12-01T17:12:11.906Z,95961.84
2022-12-01T17:17:15.013Z,95966.41
2022-12-01T17:22:18.106Z,95967.00
2022-12-01T17:27:21.186Z,95966.63
2022-12-01T17:32:24.263Z,95965.53
2022-12-01T17:37:28.726Z,95969.59
2022-12-01T17:42:32.074Z,95964.91
2022-12-01T17:47:35.875Z,95964.34
2022-12-01T17:52:40.100Z,95971.03
2022-12-01T17:57:49.722Z,95960.69
2022-12-01T18:02:53.090Z,95966.50
2022-12-01T18:07:56.312Z,95979.13
2022-12-01T18:12:59.491Z,95972.81
2022-12-01T18:18:02.968Z,95972.69
2022-12-01T18:23:06.017Z,95975.88
2022-12-01T18:28:11.039Z,95983.38
2022-12-01T18:33:14.136Z,95982.03
2022-12-01T18:38:17.380Z,95979.63
2022-12-01T18:43:20.471Z,95979.22
2022-12-01T18:48:23.504Z,95979.34
2022-12-01T18:53:26.979Z,95979.72
2022-12-01T18:58:30.184Z,95988.69
2022-12-01T19:03:33.286Z,95981.75
2022-12-01T19:08:36.428Z,95981.63
2022-12-01T19:13:39.512Z,95987.47
2022-12-01T19:18:42.700Z,95981.34
2022-12-01T19:23:45.821Z,95979.38
2022-12-01T19:28:48.947Z,95983.44
2022-12-01T19:33:59.584Z,95979.38
2022-12-01T19:39:06.031Z,95979.38
2022-12-01T19:44:10.724Z,95985.44
2022-12-01T19:49:14.355Z,95990.38
2022-12-01T19:54:17.484Z,95985.91
2022-12-01T19:59:20.982Z,95985.91
2022-12-01T20:04:24.675Z,95986.34
2022-12-01T20:09:27.778Z,95974.91
2022-12-01T20:14:30.890Z,95975.81
2022-12-01T20:19:34.198Z,95977.00
2022-12-01T20:24:39.498Z,95979.16
2022-12-01T20:29:42.621Z,95975.44
2022-12-01T20:34:45.907Z,95981.94
2022-12-01T20:39:49.088Z,95979.34
2022-12-01T20:44:52.485Z,95980.78
2022-12-01T20:49:58.517Z,95978.97
2022-12-01T20:55:02.256Z,95987.50
2022-12-01T21:00:05.314Z,95978.34
2022-12-01T21:05:11.800Z,95978.63
2022-12-01T21:10:19.793Z,95974.13
2022-12-01T21:15:23.328Z,95972.06
2022-12-01T21:20:27.141Z,95967.47
2022-12-01T21:25:30.940Z,95971.91
2022-12-01T21:30:34.040Z,95966.47
2022-12-01T21:35:37.203Z,95965.00
2022-12-01T21:40:40.311Z,95969.00
2022-12-01T21:45:43.545Z,95959.91
2022-12-01T21:50:50.925Z,95970.19
2022-12-01T21:55:56.810Z,95967.53
2022-12-01T22:00:59.947Z,95968.56
2022-12-01T22:11:26.198Z,95965.84
2022-12-01T22:16:29.283Z,95955.09
2022-12-01T22:21:32.419Z,95956.56
2022-12-01T22:26:35.520Z,95962.81
2022-12-01T22:31:38.587Z,95964.59
2022-12-01T22:36:41.796Z,95961.09
2022-12-01T22:41:45.168Z,95957.94
2022-12-01T22:46:48.294Z,95941.44
2022-12-01T22:51:51.467Z,95943.56
2022-12-01T22:56:57.728Z,95937.81
2022-12-01T23:02:00.936Z,95927.97
2022-12-01T23:07:04.097Z,95934.03
2022-12-01T23:12:07.279Z,95920.94
2022-12-01T23:17:10.478Z,95923.75
2022-12-01T23:22:13.696Z,95927.44
2022-12-01T23:27:16.870Z,95918.81
2022-12-01T23:32:26.850Z,95912.69
2022-12-01T23:37:30.045Z,95908.19
2022-12-01T23:42:33.148Z,95911.88
2022-12-01T23:47:36.756Z,95907.84
2022-12-01T23:52:39.959Z,95900.00
2022-12-01T23:57:43.116Z,95894.59
